Weather History for Robinson, IL

Change the Weather History Date:

Thursday, February 21, 2013

  Actual Average (KLWV) Record (KLWV)
Temperature  
Mean Temperature 27 °F 37 °F  
Max Temperature 34 °F 46 °F 66 °F (2011)
Min Temperature 20 °F 28 °F 16 °F (2008)
Degree Days  
Heating Degree Days 38 28  
Month to date heating degree days 641  
Since 1 July heating degree days 3492  
Cooling Degree Days 0 0  
Month to date cooling degree days 0  
Year to date cooling degree days 0  
Moisture  
Dew Point 23 °F    
Average Humidity 81    
Maximum Humidity 96    
Minimum Humidity 64    
Precipitation  
Precipitation 0.21 in 0.07 in 0.66 in (1976)
Month to date precipitation 1.58  
Year to date precipitation 3.96  
Sea Level Pressure  
Sea Level Pressure 30.19 in    
Wind  
Wind Speed 7 mph (NE)    
Max Wind Speed 20 mph    
Max Gust Speed 26 mph    
Visibility 8 miles    
Events Rain , Snow    
T = Trace of Precipitation, MM = Missing Value Source: NWS Daily Summary

Daily Weather History Graph

Daily Weather History Graph

Search for Another Location

Airport:

Trip Planner

Search our weather history database for the weather conditions in past years. The results will help you decide how hot, cold, wet, or windy it might be!

Date:

Astronomy

Feb. 21, 2013 Rise Set
Actual Time 6:33 AM CST 5:34 PM CST
Civil Twilight 6:06 AM CST 6:02 PM CST
Nautical Twilight 5:35 AM CST 6:33 PM CST
Astronomical Twilight 5:04 AM CST 7:04 PM CST
Moon 1:50 PM CST (2/21) 3:37 AM CST (2/21)
Length of Visible Light 11h 55m
Length of Day
11h 01m
Waxing Gibbous, 84% of the Moon is Illuminated
Feb 21
Waxing Gibbous
Feb 25
Full
Mar 4
Last Quarter
Mar 11
New
Mar 19
First Quarter

Hourly Weather History & Observations

Time (CST) Temp. Windchill Dew Point Humidity Pressure Visibility Wind Dir Wind Speed Gust Speed Precip Events Conditions
12:15 AM 21.9 °F - 17.8 °F 84% 30.35 in 10.0 mi Calm Calm - N/A   Clear
12:35 AM 21.0 °F - 17.8 °F 87% 30.35 in 10.0 mi Calm Calm - N/A   Clear
12:55 AM 21.6 °F 16.8 °F 18.5 °F 88% 30.34 in 10.0 mi NNE 3.5 mph - N/A   Clear
1:15 AM 21.6 °F 15.3 °F 17.6 °F 85% 30.35 in 10.0 mi North 4.6 mph - N/A   Clear
1:35 AM 22.1 °F 15.9 °F 17.6 °F 83% 30.35 in 10.0 mi North 4.6 mph - N/A   Clear
1:55 AM 22.1 °F 14.7 °F 17.8 °F 83% 30.34 in 10.0 mi North 5.8 mph - N/A   Clear
2:15 AM 22.8 °F 14.5 °F 18.1 °F 82% 30.33 in 10.0 mi North 6.9 mph - N/A   Clear
2:35 AM 22.8 °F 16.7 °F 18.0 °F 82% 30.33 in 10.0 mi NNE 4.6 mph - N/A   Clear
2:55 AM 22.5 °F 17.8 °F 17.6 °F 82% 30.34 in 10.0 mi North 3.5 mph - N/A   Clear
3:15 AM 21.6 °F 16.8 °F 17.2 °F 83% 30.34 in 10.0 mi North 3.5 mph - N/A   Clear
3:35 AM 21.6 °F 16.8 °F 17.2 °F 83% 30.34 in 10.0 mi North 3.5 mph - N/A   Clear
3:55 AM 20.7 °F 13.0 °F 16.9 °F 85% 30.33 in 10.0 mi NNE 5.8 mph - N/A   Clear
4:15 AM 22.1 °F 14.7 °F 18.0 °F 84% 30.34 in 10.0 mi NNE 5.8 mph - N/A   Clear
4:35 AM 22.1 °F 13.7 °F 18.0 °F 84% 30.34 in 10.0 mi NNE 6.9 mph - N/A   Clear
4:55 AM 22.3 °F 13.9 °F 17.8 °F 83% 30.33 in 10.0 mi NNE 6.9 mph - N/A   Clear
5:15 AM 22.1 °F 14.7 °F 17.8 °F 83% 30.33 in 10.0 mi NNE 5.8 mph - N/A   Clear
5:35 AM 21.9 °F 14.5 °F 17.8 °F 84% 30.32 in 10.0 mi NNE 5.8 mph - N/A   Clear
5:55 AM 22.6 °F 18.0 °F 18.0 °F 82% 30.32 in 10.0 mi ENE 3.5 mph - N/A   Clear
6:15 AM 22.8 °F 15.5 °F 17.6 °F 80% 30.34 in 10.0 mi ENE 5.8 mph - N/A   Clear
6:35 AM 22.5 °F 13.2 °F 17.6 °F 82% 30.34 in 10.0 mi ENE 8.1 mph - N/A   Clear
7:15 AM 23.9 °F 14.2 °F 18.5 °F 80% 30.34 in 10.0 mi NE 9.2 mph - N/A   Clear
7:35 AM 24.8 °F 12.9 °F 18.3 °F 76% 30.32 in 10.0 mi NE 13.8 mph 20.7 mph N/A   Clear
7:55 AM 25.3 °F 12.2 °F 18.7 °F 76% 30.31 in 10.0 mi ENE 17.3 mph 23.0 mph N/A   Clear
8:15 AM 25.7 °F 12.7 °F 18.5 °F 74% 30.31 in 10.0 mi ENE 17.3 mph 23.0 mph N/A   Clear
8:35 AM 26.8 °F 16.5 °F 19.2 °F 73% 30.33 in 10.0 mi ENE 11.5 mph - N/A   Clear
8:55 AM 26.6 °F 16.8 °F 18.7 °F 72% 30.34 in 10.0 mi NE 10.4 mph - N/A   Clear
9:15 AM 27.1 °F 17.5 °F 18.9 °F 71% 30.33 in 10.0 mi NE 10.4 mph - N/A   Clear
9:35 AM 27.7 °F 18.2 °F 19.0 °F 70% 30.31 in 10.0 mi ENE 10.4 mph - N/A   Clear
9:55 AM 28.4 °F 19.1 °F 19.2 °F 69% 30.31 in 10.0 mi ENE 10.4 mph - N/A   Clear
10:15 AM 28.9 °F 18.6 °F 19.8 °F 69% 30.29 in 10.0 mi NNE 12.7 mph - N/A   Clear
10:35 AM 29.3 °F 19.6 °F 19.9 °F 68% 30.29 in 10.0 mi NE 11.5 mph - N/A   Clear
10:55 AM 29.3 °F 19.1 °F 20.3 °F 69% 30.26 in 10.0 mi ENE 12.7 mph - N/A   Clear
11:15 AM 29.3 °F 19.6 °F 20.5 °F 70% 30.24 in 10.0 mi ENE 11.5 mph - N/A   Clear
11:35 AM 29.7 °F 20.1 °F 20.5 °F 69% 30.24 in 10.0 mi ENE 11.5 mph - N/A   Clear
11:55 AM 30.6 °F 21.2 °F 21.0 °F 68% 30.22 in 10.0 mi ENE 11.5 mph - N/A   Clear
12:15 PM 30.9 °F 19.8 °F 20.8 °F 66% 30.15 in 10.0 mi East 16.1 mph 21.9 mph N/A   Clear
12:35 PM 31.5 °F 19.8 °F 21.6 °F 67% 30.11 in 10.0 mi East 18.4 mph 25.3 mph N/A   Clear
12:55 PM 31.6 °F 22.1 °F 21.2 °F 65% 30.15 in 10.0 mi ENE 12.7 mph 17.3 mph N/A   Clear
1:15 PM 32.0 °F 21.2 °F 21.2 °F 64% 30.14 in 10.0 mi ENE 16.1 mph - N/A   Mostly Cloudy
1:35 PM 32.0 °F 22.5 °F 21.6 °F 65% 30.13 in 10.0 mi NE 12.7 mph 16.1 mph N/A   Overcast
1:55 PM 32.0 °F 24.2 °F 21.6 °F 65% 30.14 in 10.0 mi NE 9.2 mph - N/A   Overcast
2:15 PM 32.4 °F 23.5 °F 21.9 °F 65% 30.13 in 10.0 mi NNE 11.5 mph - N/A   Overcast
2:35 PM 32.4 °F 26.0 °F 21.9 °F 65% 30.16 in 10.0 mi North 6.9 mph - N/A   Overcast
2:55 PM 32.9 °F 27.5 °F 22.3 °F 65% 30.18 in 10.0 mi North 5.8 mph - N/A   Overcast
3:15 PM 32.9 °F 27.5 °F 22.8 °F 66% 30.18 in 10.0 mi North 5.8 mph - N/A Snow Light Snow
3:55 PM 30.6 °F 24.7 °F 27.5 °F 88% 30.19 in 0.8 mi NNE 5.8 mph - N/A Snow Light Snow
4:15 PM 30.2 °F 23.4 °F 28.4 °F 93% 30.18 in 1.5 mi NE 6.9 mph - N/A Snow Light Snow
4:35 PM 30.2 °F 21.3 °F 28.9 °F 95% 30.15 in 0.5 mi NE 10.4 mph - N/A Snow Snow
4:55 PM 30.4 °F 20.0 °F 29.1 °F 95% 30.12 in 0.5 mi ENE 13.8 mph - N/A Snow Snow
5:15 PM 30.2 °F 19.3 °F 29.1 °F 96% 30.09 in 0.5 mi ENE 15.0 mph - N/A Snow Snow
5:35 PM 31.1 °F 20.5 °F 29.8 °F 95% 30.06 in 4.0 mi ENE 15.0 mph 23.0 mph N/A   Overcast
5:55 PM 31.5 °F 19.8 °F 29.8 °F 94% 30.05 in 5.0 mi ENE 18.4 mph - 0.02 in Snow Light Snow
6:15 PM 32.0 °F 20.1 °F 30.2 °F 93% 30.01 in 5.0 mi ENE 19.6 mph 26.5 mph 0.03 in Snow Light Snow
6:35 PM 32.2 °F 21.4 °F 30.7 °F 94% 30.01 in 4.0 mi ENE 16.1 mph - 0.08 in   Overcast
6:55 PM 32.4 °F 22.1 °F 31.1 °F 95% 29.97 in 4.0 mi ENE 15.0 mph - 0.11 in   Overcast
7:15 PM 32.9 °F 23.2 °F 31.3 °F 94% 29.97 in 5.0 mi ENE 13.8 mph - 0.02 in   Overcast
7:55 PM 33.3 °F 24.6 °F 31.5 °F 93% 29.96 in 7.0 mi East 11.5 mph - 0.03 in   Overcast
8:15 PM 33.4 °F 24.8 °F 31.5 °F 92% 29.95 in 10.0 mi East 11.5 mph - N/A   Overcast
8:35 PM 33.8 °F 25.8 °F 32.0 °F 93% 29.95 in 5.0 mi East 10.4 mph - 0.01 in   Overcast
9:15 PM 34.0 °F 26.6 °F 32.0 °F 92% 29.97 in 4.0 mi East 9.2 mph - 0.02 in Rain Light Rain
9:55 PM 33.4 °F 25.9 °F 31.6 °F 93% 29.94 in 3.0 mi East 9.2 mph - 0.04 in   Light Drizzle
10:15 PM 33.3 °F 25.7 °F 31.6 °F 94% 29.93 in 7.0 mi East 9.2 mph - N/A   Overcast
10:35 PM 33.3 °F 25.7 °F 31.5 °F 93% 29.91 in 10.0 mi East 9.2 mph - N/A   Overcast
10:55 PM 33.3 °F 26.4 °F 31.5 °F 93% 29.90 in 7.0 mi East 8.1 mph - N/A   Overcast
11:15 PM 33.3 °F 26.4 °F 31.5 °F 93% 29.89 in 10.0 mi East 8.1 mph - N/A   Overcast
11:35 PM 33.8 °F 27.0 °F 32.0 °F 93% 29.88 in 10.0 mi East 8.1 mph - N/A   Overcast
11:55 PM 34.0 °F 29.8 °F 32.0 °F 92% 29.89 in 7.0 mi ESE 4.6 mph - N/A   Overcast